sensor_id;sensor_type;location;lat;lon;timestamp;P1;durP1;ratioP1;P2;durP2;ratioP2
55300;SDS011;58302;51.446;-2.000;2023-06-26T00:02:24;6.78;;;2.75;;
55300;SDS011;58302;51.446;-2.000;2023-06-26T00:04:50;7.38;;;2.90;;
55300;SDS011;58302;51.446;-2.000;2023-06-26T00:07:20;8.75;;;3.75;;
55300;SDS011;58302;51.446;-2.000;2023-06-26T00:09:46;5.43;;;2.90;;
55300;SDS011;58302;51.446;-2.000;2023-06-26T00:12:12;7.72;;;2.95;;
55300;SDS011;58302;51.446;-2.000;2023-06-26T00:14:37;7.45;;;3.92;;
55300;SDS011;58302;51.446;-2.000;2023-06-26T00:17:03;5.93;;;2.75;;
55300;SDS011;58302;51.446;-2.000;2023-06-26T00:19:29;9.63;;;3.00;;
55300;SDS011;58302;51.446;-2.000;2023-06-26T00:21:55;6.90;;;3.60;;
55300;SDS011;58302;51.446;-2.000;2023-06-26T00:24:21;6.63;;;2.78;;
55300;SDS011;58302;51.446;-2.000;2023-06-26T00:26:48;9.23;;;3.75;;
55300;SDS011;58302;51.446;-2.000;2023-06-26T00:29:14;11.25;;;3.40;;
55300;SDS011;58302;51.446;-2.000;2023-06-26T00:31:40;4.63;;;2.53;;
55300;SDS011;58302;51.446;-2.000;2023-06-26T00:34:06;9.48;;;3.15;;
55300;SDS011;58302;51.446;-2.000;2023-06-26T00:36:32;7.82;;;3.05;;
55300;SDS011;58302;51.446;-2.000;2023-06-26T00:38:58;8.23;;;3.30;;
55300;SDS011;58302;51.446;-2.000;2023-06-26T00:41:25;10.13;;;4.38;;
55300;SDS011;58302;51.446;-2.000;2023-06-26T00:43:51;13.07;;;3.60;;
55300;SDS011;58302;51.446;-2.000;2023-06-26T00:46:16;7.28;;;3.20;;
55300;SDS011;58302;51.446;-2.000;2023-06-26T00:48:43;7.70;;;3.22;;
55300;SDS011;58302;51.446;-2.000;2023-06-26T00:51:11;8.25;;;3.50;;
55300;SDS011;58302;51.446;-2.000;2023-06-26T00:53:38;7.63;;;3.65;;
55300;SDS011;58302;51.446;-2.000;2023-06-26T00:56:04;4.32;;;2.92;;
55300;SDS011;58302;51.446;-2.000;2023-06-26T00:58:31;5.68;;;3.47;;
55300;SDS011;58302;51.446;-2.000;2023-06-26T01:00:57;9.10;;;3.30;;
55300;SDS011;58302;51.446;-2.000;2023-06-26T01:03:24;8.25;;;3.55;;
55300;SDS011;58302;51.446;-2.000;2023-06-26T01:05:53;8.15;;;3.85;;
55300;SDS011;58302;51.446;-2.000;2023-06-26T01:08:21;8.80;;;3.33;;
55300;SDS011;58302;51.446;-2.000;2023-06-26T01:10:49;7.55;;;3.53;;
55300;SDS011;58302;51.446;-2.000;2023-06-26T01:13:15;7.47;;;3.10;;
55300;SDS011;58302;51.446;-2.000;2023-06-26T01:15:41;8.13;;;2.83;;
55300;SDS011;58302;51.446;-2.000;2023-06-26T01:18:08;6.68;;;2.83;;
55300;SDS011;58302;51.446;-2.000;2023-06-26T01:20:35;9.02;;;3.05;;
55300;SDS011;58302;51.446;-2.000;2023-06-26T01:23:07;8.00;;;3.13;;
55300;SDS011;58302;51.446;-2.000;2023-06-26T01:28:43;8.25;;;3.40;;
55300;SDS011;58302;51.446;-2.000;2023-06-26T01:31:10;8.07;;;3.35;;
55300;SDS011;58302;51.446;-2.000;2023-06-26T01:33:38;5.75;;;2.88;;
55300;SDS011;58302;51.446;-2.000;2023-06-26T01:36:05;5.82;;;2.75;;
55300;SDS011;58302;51.446;-2.000;2023-06-26T01:38:32;10.07;;;2.95;;
55300;SDS011;58302;51.446;-2.000;2023-06-26T01:40:58;7.85;;;3.15;;
55300;SDS011;58302;51.446;-2.000;2023-06-26T01:43:30;8.27;;;3.13;;
55300;SDS011;58302;51.446;-2.000;2023-06-26T01:46:06;15.48;;;3.88;;
55300;SDS011;58302;51.446;-2.000;2023-06-26T01:51:47;6.38;;;2.70;;
55300;SDS011;58302;51.446;-2.000;2023-06-26T01:54:20;5.75;;;2.83;;
55300;SDS011;58302;51.446;-2.000;2023-06-26T01:56:49;14.95;;;3.95;;
55300;SDS011;58302;51.446;-2.000;2023-06-26T01:59:19;4.38;;;2.92;;
55300;SDS011;58302;51.446;-2.000;2023-06-26T02:01:47;5.53;;;2.30;;
55300;SDS011;58302;51.446;-2.000;2023-06-26T02:04:14;9.15;;;2.60;;
55300;SDS011;58302;51.446;-2.000;2023-06-26T02:06:40;7.72;;;3.05;;
55300;SDS011;58302;51.446;-2.000;2023-06-26T02:09:06;11.13;;;2.80;;
55300;SDS011;58302;51.446;-2.000;2023-06-26T02:11:31;8.77;;;4.30;;
55300;SDS011;58302;51.446;-2.000;2023-06-26T02:13:57;15.02;;;4.28;;
55300;SDS011;58302;51.446;-2.000;2023-06-26T02:16:23;4.78;;;2.30;;
55300;SDS011;58302;51.446;-2.000;2023-06-26T02:18:49;10.60;;;3.58;;
55300;SDS011;58302;51.446;-2.000;2023-06-26T02:21:15;9.55;;;2.78;;
55300;SDS011;58302;51.446;-2.000;2023-06-26T02:23:41;8.48;;;2.58;;
55300;SDS011;58302;51.446;-2.000;2023-06-26T02:26:07;9.70;;;3.35;;
55300;SDS011;58302;51.446;-2.000;2023-06-26T02:28:33;8.23;;;2.60;;
55300;SDS011;58302;51.446;-2.000;2023-06-26T02:31:00;6.05;;;2.63;;
55300;SDS011;58302;51.446;-2.000;2023-06-26T02:33:26;9.60;;;2.60;;
55300;SDS011;58302;51.446;-2.000;2023-06-26T02:35:52;9.07;;;2.45;;
55300;SDS011;58302;51.446;-2.000;2023-06-26T02:38:18;7.85;;;2.72;;
55300;SDS011;58302;51.446;-2.000;2023-06-26T02:40:44;8.55;;;2.28;;
55300;SDS011;58302;51.446;-2.000;2023-06-26T02:43:10;8.77;;;2.85;;
55300;SDS011;58302;51.446;-2.000;2023-06-26T02:45:36;9.80;;;3.17;;
55300;SDS011;58302;51.446;-2.000;2023-06-26T02:48:02;6.32;;;3.00;;
55300;SDS011;58302;51.446;-2.000;2023-06-26T02:50:28;12.23;;;3.90;;
55300;SDS011;58302;51.446;-2.000;2023-06-26T02:52:53;9.27;;;3.05;;
55300;SDS011;58302;51.446;-2.000;2023-06-26T02:55:19;7.70;;;2.55;;
55300;SDS011;58302;51.446;-2.000;2023-06-26T02:57:46;8.57;;;3.22;;
55300;SDS011;58302;51.446;-2.000;2023-06-26T03:00:12;11.65;;;2.88;;
55300;SDS011;58302;51.446;-2.000;2023-06-26T03:02:39;8.05;;;3.53;;
55300;SDS011;58302;51.446;-2.000;2023-06-26T03:05:05;13.13;;;3.00;;
55300;SDS011;58302;51.446;-2.000;2023-06-26T03:07:31;8.10;;;3.17;;
55300;SDS011;58302;51.446;-2.000;2023-06-26T03:09:57;7.57;;;2.83;;
55300;SDS011;58302;51.446;-2.000;2023-06-26T03:12:23;8.48;;;2.60;;
55300;SDS011;58302;51.446;-2.000;2023-06-26T03:14:50;6.85;;;3.00;;
55300;SDS011;58302;51.446;-2.000;2023-06-26T03:17:16;7.65;;;2.95;;
55300;SDS011;58302;51.446;-2.000;2023-06-26T03:19:43;8.55;;;2.85;;
55300;SDS011;58302;51.446;-2.000;2023-06-26T03:22:09;9.27;;;3.00;;
55300;SDS011;58302;51.446;-2.000;2023-06-26T03:24:35;8.70;;;3.03;;
55300;SDS011;58302;51.446;-2.000;2023-06-26T03:27:00;10.48;;;3.40;;
55300;SDS011;58302;51.446;-2.000;2023-06-26T03:29:27;9.93;;;3.88;;
55300;SDS011;58302;51.446;-2.000;2023-06-26T03:31:55;11.95;;;4.45;;
55300;SDS011;58302;51.446;-2.000;2023-06-26T03:34:21;12.00;;;4.30;;
55300;SDS011;58302;51.446;-2.000;2023-06-26T03:36:47;9.20;;;3.67;;
55300;SDS011;58302;51.446;-2.000;2023-06-26T03:39:13;8.85;;;3.38;;
55300;SDS011;58302;51.446;-2.000;2023-06-26T03:41:39;9.80;;;3.00;;
55300;SDS011;58302;51.446;-2.000;2023-06-26T03:44:05;12.98;;;2.88;;
55300;SDS011;58302;51.446;-2.000;2023-06-26T03:46:31;8.13;;;2.88;;
55300;SDS011;58302;51.446;-2.000;2023-06-26T03:48:56;9.93;;;3.53;;
55300;SDS011;58302;51.446;-2.000;2023-06-26T03:51:22;9.40;;;2.60;;
55300;SDS011;58302;51.446;-2.000;2023-06-26T03:53:48;9.95;;;3.45;;
55300;SDS011;58302;51.446;-2.000;2023-06-26T03:56:14;5.85;;;2.95;;
55300;SDS011;58302;51.446;-2.000;2023-06-26T03:58:40;5.68;;;3.00;;
55300;SDS011;58302;51.446;-2.000;2023-06-26T04:01:06;6.22;;;2.78;;
55300;SDS011;58302;51.446;-2.000;2023-06-26T04:03:32;12.88;;;3.80;;
55300;SDS011;58302;51.446;-2.000;2023-06-26T04:05:59;10.20;;;2.83;;
55300;SDS011;58302;51.446;-2.000;2023-06-26T04:08:25;11.75;;;3.63;;
55300;SDS011;58302;51.446;-2.000;2023-06-26T04:10:54;13.52;;;3.33;;
55300;SDS011;58302;51.446;-2.000;2023-06-26T04:13:22;8.02;;;3.22;;
55300;SDS011;58302;51.446;-2.000;2023-06-26T04:15:48;9.90;;;2.92;;
55300;SDS011;58302;51.446;-2.000;2023-06-26T04:18:14;6.18;;;3.08;;
55300;SDS011;58302;51.446;-2.000;2023-06-26T04:20:41;12.88;;;3.90;;
55300;SDS011;58302;51.446;-2.000;2023-06-26T04:23:31;10.48;;;3.00;;
55300;SDS011;58302;51.446;-2.000;2023-06-26T04:25:57;10.80;;;3.47;;
55300;SDS011;58302;51.446;-2.000;2023-06-26T04:28:24;12.15;;;3.88;;
55300;SDS011;58302;51.446;-2.000;2023-06-26T04:30:50;11.18;;;3.17;;
55300;SDS011;58302;51.446;-2.000;2023-06-26T04:33:16;9.45;;;3.30;;
55300;SDS011;58302;51.446;-2.000;2023-06-26T04:35:42;8.77;;;3.25;;
55300;SDS011;58302;51.446;-2.000;2023-06-26T04:38:10;6.88;;;3.42;;
55300;SDS011;58302;51.446;-2.000;2023-06-26T04:40:37;10.52;;;4.10;;
55300;SDS011;58302;51.446;-2.000;2023-06-26T04:43:03;6.50;;;3.33;;
55300;SDS011;58302;51.446;-2.000;2023-06-26T04:45:29;8.50;;;3.17;;
55300;SDS011;58302;51.446;-2.000;2023-06-26T04:47:55;8.18;;;3.20;;
55300;SDS011;58302;51.446;-2.000;2023-06-26T04:50:22;14.15;;;3.42;;
55300;SDS011;58302;51.446;-2.000;2023-06-26T04:52:48;7.18;;;2.90;;
55300;SDS011;58302;51.446;-2.000;2023-06-26T04:55:14;12.85;;;4.53;;
55300;SDS011;58302;51.446;-2.000;2023-06-26T04:57:40;8.02;;;3.88;;
55300;SDS011;58302;51.446;-2.000;2023-06-26T05:00:06;15.10;;;4.15;;
55300;SDS011;58302;51.446;-2.000;2023-06-26T05:02:36;11.32;;;3.75;;
55300;SDS011;58302;51.446;-2.000;2023-06-26T05:05:02;11.70;;;3.15;;
55300;SDS011;58302;51.446;-2.000;2023-06-26T05:07:28;12.48;;;3.22;;
55300;SDS011;58302;51.446;-2.000;2023-06-26T05:09:54;10.52;;;3.47;;
55300;SDS011;58302;51.446;-2.000;2023-06-26T05:12:20;17.13;;;4.63;;
55300;SDS011;58302;51.446;-2.000;2023-06-26T05:14:46;10.30;;;3.05;;
55300;SDS011;58302;51.446;-2.000;2023-06-26T05:17:15;7.88;;;3.03;;
55300;SDS011;58302;51.446;-2.000;2023-06-26T05:19:41;10.02;;;3.67;;
55300;SDS011;58302;51.446;-2.000;2023-06-26T05:22:08;10.90;;;3.22;;
55300;SDS011;58302;51.446;-2.000;2023-06-26T05:24:35;6.60;;;3.33;;
55300;SDS011;58302;51.446;-2.000;2023-06-26T05:27:01;8.95;;;2.70;;
55300;SDS011;58302;51.446;-2.000;2023-06-26T05:29:28;5.85;;;2.75;;
55300;SDS011;58302;51.446;-2.000;2023-06-26T05:31:56;5.65;;;2.67;;
55300;SDS011;58302;51.446;-2.000;2023-06-26T05:34:22;6.78;;;2.53;;
55300;SDS011;58302;51.446;-2.000;2023-06-26T05:36:52;5.25;;;2.15;;
55300;SDS011;58302;51.446;-2.000;2023-06-26T05:39:22;10.38;;;2.92;;
55300;SDS011;58302;51.446;-2.000;2023-06-26T05:41:50;8.35;;;2.47;;
55300;SDS011;58302;51.446;-2.000;2023-06-26T05:44:17;9.32;;;3.90;;
55300;SDS011;58302;51.446;-2.000;2023-06-26T05:46:45;9.70;;;2.55;;
55300;SDS011;58302;51.446;-2.000;2023-06-26T05:49:12;7.30;;;2.95;;
55300;SDS011;58302;51.446;-2.000;2023-06-26T05:51:38;7.60;;;1.90;;
55300;SDS011;58302;51.446;-2.000;2023-06-26T05:54:04;5.15;;;2.22;;
55300;SDS011;58302;51.446;-2.000;2023-06-26T05:56:30;6.15;;;2.67;;
55300;SDS011;58302;51.446;-2.000;2023-06-26T05:58:58;8.13;;;2.90;;
55300;SDS011;58302;51.446;-2.000;2023-06-26T06:01:24;5.82;;;2.55;;
55300;SDS011;58302;51.446;-2.000;2023-06-26T06:03:50;6.47;;;2.28;;
55300;SDS011;58302;51.446;-2.000;2023-06-26T06:06:16;6.28;;;2.90;;
55300;SDS011;58302;51.446;-2.000;2023-06-26T06:08:42;6.65;;;3.15;;
55300;SDS011;58302;51.446;-2.000;2023-06-26T06:11:08;6.18;;;2.17;;
55300;SDS011;58302;51.446;-2.000;2023-06-26T06:13:33;5.07;;;2.20;;
55300;SDS011;58302;51.446;-2.000;2023-06-26T06:15:59;9.75;;;2.90;;
55300;SDS011;58302;51.446;-2.000;2023-06-26T06:18:26;24.15;;;3.95;;
55300;SDS011;58302;51.446;-2.000;2023-06-26T06:20:51;14.50;;;2.80;;
55300;SDS011;58302;51.446;-2.000;2023-06-26T06:23:18;5.63;;;2.50;;
55300;SDS011;58302;51.446;-2.000;2023-06-26T06:25:44;8.27;;;3.30;;
55300;SDS011;58302;51.446;-2.000;2023-06-26T06:28:10;6.45;;;2.55;;
55300;SDS011;58302;51.446;-2.000;2023-06-26T06:30:35;9.38;;;2.65;;
55300;SDS011;58302;51.446;-2.000;2023-06-26T06:33:01;9.20;;;3.67;;
55300;SDS011;58302;51.446;-2.000;2023-06-26T06:35:28;9.13;;;2.22;;
55300;SDS011;58302;51.446;-2.000;2023-06-26T06:37:54;5.82;;;3.00;;
55300;SDS011;58302;51.446;-2.000;2023-06-26T06:40:19;6.00;;;2.38;;
55300;SDS011;58302;51.446;-2.000;2023-06-26T06:42:48;6.25;;;2.28;;
55300;SDS011;58302;51.446;-2.000;2023-06-26T06:45:14;7.53;;;2.67;;
55300;SDS011;58302;51.446;-2.000;2023-06-26T06:47:39;4.78;;;1.77;;
55300;SDS011;58302;51.446;-2.000;2023-06-26T06:50:05;5.43;;;1.67;;
55300;SDS011;58302;51.446;-2.000;2023-06-26T06:52:35;5.47;;;2.13;;
55300;SDS011;58302;51.446;-2.000;2023-06-26T06:55:06;4.82;;;2.08;;
55300;SDS011;58302;51.446;-2.000;2023-06-26T06:57:35;3.70;;;1.42;;
55300;SDS011;58302;51.446;-2.000;2023-06-26T07:00:03;3.65;;;1.85;;
55300;SDS011;58302;51.446;-2.000;2023-06-26T07:02:39;8.05;;;1.95;;
55300;SDS011;58302;51.446;-2.000;2023-06-26T07:05:07;2.38;;;1.60;;
55300;SDS011;58302;51.446;-2.000;2023-06-26T07:07:35;6.13;;;1.80;;
55300;SDS011;58302;51.446;-2.000;2023-06-26T07:10:08;3.58;;;1.52;;
55300;SDS011;58302;51.446;-2.000;2023-06-26T07:15:02;3.03;;;1.75;;
55300;SDS011;58302;51.446;-2.000;2023-06-26T07:17:30;2.65;;;1.60;;
55300;SDS011;58302;51.446;-2.000;2023-06-26T07:19:56;5.45;;;2.03;;
55300;SDS011;58302;51.446;-2.000;2023-06-26T07:22:23;4.72;;;1.60;;
55300;SDS011;58302;51.446;-2.000;2023-06-26T07:24:49;2.92;;;1.80;;
55300;SDS011;58302;51.446;-2.000;2023-06-26T07:27:15;3.40;;;1.92;;
55300;SDS011;58302;51.446;-2.000;2023-06-26T07:29:42;5.15;;;2.05;;
55300;SDS011;58302;51.446;-2.000;2023-06-26T07:32:08;4.07;;;1.58;;
55300;SDS011;58302;51.446;-2.000;2023-06-26T07:34:34;3.83;;;1.92;;
55300;SDS011;58302;51.446;-2.000;2023-06-26T07:37:00;3.35;;;1.80;;
55300;SDS011;58302;51.446;-2.000;2023-06-26T07:39:26;4.47;;;2.20;;
55300;SDS011;58302;51.446;-2.000;2023-06-26T07:41:52;13.95;;;2.42;;
55300;SDS011;58302;51.446;-2.000;2023-06-26T07:44:18;4.43;;;1.73;;
55300;SDS011;58302;51.446;-2.000;2023-06-26T07:46:44;9.48;;;3.15;;
55300;SDS011;58302;51.446;-2.000;2023-06-26T07:49:10;2.83;;;1.40;;
55300;SDS011;58302;51.446;-2.000;2023-06-26T07:51:37;6.32;;;1.80;;
55300;SDS011;58302;51.446;-2.000;2023-06-26T07:54:03;4.43;;;1.70;;
55300;SDS011;58302;51.446;-2.000;2023-06-26T07:56:29;5.25;;;1.52;;
55300;SDS011;58302;51.446;-2.000;2023-06-26T07:58:55;3.60;;;1.80;;
55300;SDS011;58302;51.446;-2.000;2023-06-26T08:01:23;5.18;;;1.92;;
55300;SDS011;58302;51.446;-2.000;2023-06-26T08:03:49;6.13;;;2.17;;
55300;SDS011;58302;51.446;-2.000;2023-06-26T08:06:15;4.93;;;1.63;;
55300;SDS011;58302;51.446;-2.000;2023-06-26T08:08:41;4.60;;;1.60;;
55300;SDS011;58302;51.446;-2.000;2023-06-26T08:11:07;3.78;;;1.73;;
55300;SDS011;58302;51.446;-2.000;2023-06-26T08:13:33;3.13;;;1.90;;
55300;SDS011;58302;51.446;-2.000;2023-06-26T08:15:59;4.32;;;1.85;;
55300;SDS011;58302;51.446;-2.000;2023-06-26T08:18:25;3.50;;;1.30;;
55300;SDS011;58302;51.446;-2.000;2023-06-26T08:20:51;4.10;;;1.85;;
55300;SDS011;58302;51.446;-2.000;2023-06-26T08:23:17;1.25;;;1.10;;
55300;SDS011;58302;51.446;-2.000;2023-06-26T08:25:43;2.95;;;1.38;;
55300;SDS011;58302;51.446;-2.000;2023-06-26T08:28:09;5.75;;;3.10;;
55300;SDS011;58302;51.446;-2.000;2023-06-26T08:30:35;3.72;;;1.73;;
55300;SDS011;58302;51.446;-2.000;2023-06-26T08:33:01;4.57;;;1.70;;
55300;SDS011;58302;51.446;-2.000;2023-06-26T08:35:27;4.15;;;1.73;;
55300;SDS011;58302;51.446;-2.000;2023-06-26T08:37:53;3.65;;;1.60;;
55300;SDS011;58302;51.446;-2.000;2023-06-26T08:40:21;4.68;;;1.33;;
55300;SDS011;58302;51.446;-2.000;2023-06-26T08:42:47;3.35;;;1.88;;
55300;SDS011;58302;51.446;-2.000;2023-06-26T08:45:18;4.63;;;1.63;;
55300;SDS011;58302;51.446;-2.000;2023-06-26T08:47:45;3.63;;;1.35;;
55300;SDS011;58302;51.446;-2.000;2023-06-26T08:50:12;3.85;;;1.30;;
55300;SDS011;58302;51.446;-2.000;2023-06-26T08:55:14;4.18;;;1.70;;
55300;SDS011;58302;51.446;-2.000;2023-06-26T08:57:41;4.35;;;2.30;;
55300;SDS011;58302;51.446;-2.000;2023-06-26T09:00:07;5.40;;;1.65;;
55300;SDS011;58302;51.446;-2.000;2023-06-26T09:02:37;6.22;;;1.80;;
55300;SDS011;58302;51.446;-2.000;2023-06-26T09:05:04;4.18;;;1.85;;
55300;SDS011;58302;51.446;-2.000;2023-06-26T09:07:30;6.00;;;2.00;;
55300;SDS011;58302;51.446;-2.000;2023-06-26T09:09:56;3.95;;;1.63;;
55300;SDS011;58302;51.446;-2.000;2023-06-26T09:12:22;3.70;;;1.90;;
55300;SDS011;58302;51.446;-2.000;2023-06-26T09:14:48;3.00;;;1.65;;
55300;SDS011;58302;51.446;-2.000;2023-06-26T09:17:15;3.22;;;1.83;;
55300;SDS011;58302;51.446;-2.000;2023-06-26T09:19:41;2.65;;;2.03;;
55300;SDS011;58302;51.446;-2.000;2023-06-26T09:22:11;2.67;;;1.70;;
55300;SDS011;58302;51.446;-2.000;2023-06-26T09:24:40;5.18;;;1.50;;
55300;SDS011;58302;51.446;-2.000;2023-06-26T09:27:07;3.65;;;1.67;;
55300;SDS011;58302;51.446;-2.000;2023-06-26T09:29:33;5.68;;;1.83;;
55300;SDS011;58302;51.446;-2.000;2023-06-26T09:31:59;4.18;;;1.75;;
55300;SDS011;58302;51.446;-2.000;2023-06-26T09:34:32;5.60;;;1.70;;
55300;SDS011;58302;51.446;-2.000;2023-06-26T09:36:59;4.93;;;1.83;;
55300;SDS011;58302;51.446;-2.000;2023-06-26T09:39:29;4.00;;;1.73;;
55300;SDS011;58302;51.446;-2.000;2023-06-26T09:41:56;3.75;;;1.70;;
55300;SDS011;58302;51.446;-2.000;2023-06-26T09:44:22;4.30;;;1.65;;
55300;SDS011;58302;51.446;-2.000;2023-06-26T09:46:49;4.72;;;2.10;;
55300;SDS011;58302;51.446;-2.000;2023-06-26T09:49:15;3.58;;;1.50;;
55300;SDS011;58302;51.446;-2.000;2023-06-26T09:51:41;6.18;;;2.83;;
55300;SDS011;58302;51.446;-2.000;2023-06-26T09:54:08;5.82;;;2.35;;
55300;SDS011;58302;51.446;-2.000;2023-06-26T09:56:35;3.38;;;1.45;;
55300;SDS011;58302;51.446;-2.000;2023-06-26T09:59:02;6.53;;;1.88;;
55300;SDS011;58302;51.446;-2.000;2023-06-26T10:01:30;4.47;;;1.70;;
55300;SDS011;58302;51.446;-2.000;2023-06-26T10:03:57;5.38;;;2.53;;
55300;SDS011;58302;51.446;-2.000;2023-06-26T10:06:27;6.50;;;2.25;;
55300;SDS011;58302;51.446;-2.000;2023-06-26T10:08:55;3.70;;;1.50;;
55300;SDS011;58302;51.446;-2.000;2023-06-26T10:11:22;5.25;;;1.60;;
55300;SDS011;58302;51.446;-2.000;2023-06-26T10:13:51;4.13;;;1.77;;
55300;SDS011;58302;51.446;-2.000;2023-06-26T10:16:25;6.03;;;1.63;;
55300;SDS011;58302;51.446;-2.000;2023-06-26T10:18:56;3.45;;;1.80;;
55300;SDS011;58302;51.446;-2.000;2023-06-26T10:21:26;3.15;;;1.30;;
55300;SDS011;58302;51.446;-2.000;2023-06-26T10:23:56;2.17;;;1.40;;
55300;SDS011;58302;51.446;-2.000;2023-06-26T10:26:23;4.97;;;1.63;;
55300;SDS011;58302;51.446;-2.000;2023-06-26T10:28:51;3.00;;;1.45;;
55300;SDS011;58302;51.446;-2.000;2023-06-26T10:31:20;2.97;;;1.60;;
55300;SDS011;58302;51.446;-2.000;2023-06-26T10:33:49;4.75;;;1.67;;
55300;SDS011;58302;51.446;-2.000;2023-06-26T10:36:16;3.13;;;1.50;;
55300;SDS011;58302;51.446;-2.000;2023-06-26T10:38:56;3.05;;;1.30;;
55300;SDS011;58302;51.446;-2.000;2023-06-26T10:41:24;2.22;;;1.25;;
55300;SDS011;58302;51.446;-2.000;2023-06-26T10:43:51;3.20;;;1.15;;
55300;SDS011;58302;51.446;-2.000;2023-06-26T10:49:25;4.53;;;1.60;;
55300;SDS011;58302;51.446;-2.000;2023-06-26T10:51:51;3.13;;;1.42;;
55300;SDS011;58302;51.446;-2.000;2023-06-26T10:54:19;2.53;;;1.05;;
55300;SDS011;58302;51.446;-2.000;2023-06-26T10:56:47;4.03;;;1.90;;
55300;SDS011;58302;51.446;-2.000;2023-06-26T10:59:17;5.40;;;1.52;;
55300;SDS011;58302;51.446;-2.000;2023-06-26T11:01:44;3.80;;;1.58;;
55300;SDS011;58302;51.446;-2.000;2023-06-26T11:04:13;3.42;;;1.60;;
55300;SDS011;58302;51.446;-2.000;2023-06-26T11:06:43;5.00;;;1.77;;
55300;SDS011;58302;51.446;-2.000;2023-06-26T11:09:14;1.85;;;1.15;;
55300;SDS011;58302;51.446;-2.000;2023-06-26T11:14:19;2.38;;;1.10;;
55300;SDS011;58302;51.446;-2.000;2023-06-26T11:16:46;4.05;;;1.25;;
55300;SDS011;58302;51.446;-2.000;2023-06-26T11:19:14;3.40;;;1.38;;
55300;SDS011;58302;51.446;-2.000;2023-06-26T11:21:41;3.33;;;1.30;;
55300;SDS011;58302;51.446;-2.000;2023-06-26T11:24:07;3.08;;;1.50;;
55300;SDS011;58302;51.446;-2.000;2023-06-26T11:26:40;2.58;;;1.48;;
55300;SDS011;58302;51.446;-2.000;2023-06-26T11:31:34;3.70;;;1.80;;
55300;SDS011;58302;51.446;-2.000;2023-06-26T11:34:07;3.63;;;1.50;;
55300;SDS011;58302;51.446;-2.000;2023-06-26T11:36:36;2.45;;;1.13;;
55300;SDS011;58302;51.446;-2.000;2023-06-26T11:39:03;4.10;;;1.48;;
55300;SDS011;58302;51.446;-2.000;2023-06-26T11:41:32;3.97;;;1.23;;
55300;SDS011;58302;51.446;-2.000;2023-06-26T11:44:00;3.05;;;1.48;;
55300;SDS011;58302;51.446;-2.000;2023-06-26T11:46:27;1.88;;;0.93;;
55300;SDS011;58302;51.446;-2.000;2023-06-26T11:48:54;2.20;;;1.17;;
55300;SDS011;58302;51.446;-2.000;2023-06-26T11:51:20;1.75;;;1.17;;
55300;SDS011;58302;51.446;-2.000;2023-06-26T11:53:46;1.73;;;1.15;;
55300;SDS011;58302;51.446;-2.000;2023-06-26T11:56:14;2.20;;;1.25;;
55300;SDS011;58302;51.446;-2.000;2023-06-26T12:03:58;2.50;;;1.20;;
55300;SDS011;58302;51.446;-2.000;2023-06-26T12:06:26;5.88;;;1.73;;
55300;SDS011;58302;51.446;-2.000;2023-06-26T12:08:53;5.00;;;1.30;;
55300;SDS011;58302;51.446;-2.000;2023-06-26T12:11:20;2.85;;;1.13;;
55300;SDS011;58302;51.446;-2.000;2023-06-26T12:13:49;3.78;;;1.40;;
55300;SDS011;58302;51.446;-2.000;2023-06-26T12:16:15;3.75;;;1.50;;
55300;SDS011;58302;51.446;-2.000;2023-06-26T12:18:42;2.25;;;1.30;;
55300;SDS011;58302;51.446;-2.000;2023-06-26T12:21:08;3.00;;;1.30;;
55300;SDS011;58302;51.446;-2.000;2023-06-26T12:23:38;2.10;;;1.10;;
55300;SDS011;58302;51.446;-2.000;2023-06-26T12:26:18;3.22;;;1.25;;
55300;SDS011;58302;51.446;-2.000;2023-06-26T12:28:44;3.75;;;1.45;;
55300;SDS011;58302;51.446;-2.000;2023-06-26T12:31:14;2.08;;;1.52;;
55300;SDS011;58302;51.446;-2.000;2023-06-26T12:33:44;1.92;;;1.15;;
55300;SDS011;58302;51.446;-2.000;2023-06-26T12:36:11;1.80;;;1.08;;
55300;SDS011;58302;51.446;-2.000;2023-06-26T12:38:42;3.42;;;1.55;;
55300;SDS011;58302;51.446;-2.000;2023-06-26T12:41:14;1.83;;;1.10;;
55300;SDS011;58302;51.446;-2.000;2023-06-26T12:43:43;2.05;;;1.48;;
55300;SDS011;58302;51.446;-2.000;2023-06-26T12:46:09;6.32;;;1.13;;
55300;SDS011;58302;51.446;-2.000;2023-06-26T12:48:36;1.30;;;0.88;;
55300;SDS011;58302;51.446;-2.000;2023-06-26T12:51:12;3.90;;;1.40;;
55300;SDS011;58302;51.446;-2.000;2023-06-26T12:53:40;2.50;;;1.27;;
55300;SDS011;58302;51.446;-2.000;2023-06-26T12:56:07;2.67;;;1.10;;
55300;SDS011;58302;51.446;-2.000;2023-06-26T12:58:34;3.88;;;1.05;;
55300;SDS011;58302;51.446;-2.000;2023-06-26T13:01:04;3.28;;;1.70;;
55300;SDS011;58302;51.446;-2.000;2023-06-26T13:07:20;3.28;;;1.10;;
55300;SDS011;58302;51.446;-2.000;2023-06-26T13:13:56;2.95;;;1.10;;
55300;SDS011;58302;51.446;-2.000;2023-06-26T13:16:54;3.80;;;1.33;;
55300;SDS011;58302;51.446;-2.000;2023-06-26T13:19:19;3.10;;;1.48;;
55300;SDS011;58302;51.446;-2.000;2023-06-26T13:21:45;5.90;;;1.42;;
55300;SDS011;58302;51.446;-2.000;2023-06-26T13:24:12;2.10;;;1.42;;
55300;SDS011;58302;51.446;-2.000;2023-06-26T13:27:00;2.75;;;1.70;;
55300;SDS011;58302;51.446;-2.000;2023-06-26T13:29:31;2.70;;;1.00;;
55300;SDS011;58302;51.446;-2.000;2023-06-26T13:32:16;3.97;;;1.33;;
55300;SDS011;58302;51.446;-2.000;2023-06-26T13:35:30;2.80;;;1.73;;
55300;SDS011;58302;51.446;-2.000;2023-06-26T13:38:38;3.35;;;1.40;;
55300;SDS011;58302;51.446;-2.000;2023-06-26T13:40:54;5.05;;;1.52;;
55300;SDS011;58302;51.446;-2.000;2023-06-26T13:43:33;2.42;;;1.73;;
55300;SDS011;58302;51.446;-2.000;2023-06-26T13:46:24;2.75;;;1.38;;
55300;SDS011;58302;51.446;-2.000;2023-06-26T13:48:50;2.25;;;1.20;;
55300;SDS011;58302;51.446;-2.000;2023-06-26T13:51:37;5.65;;;1.40;;
55300;SDS011;58302;51.446;-2.000;2023-06-26T13:54:03;2.28;;;0.90;;
55300;SDS011;58302;51.446;-2.000;2023-06-26T13:56:32;10.18;;;1.70;;
55300;SDS011;58302;51.446;-2.000;2023-06-26T13:58:58;1.88;;;1.15;;
55300;SDS011;58302;51.446;-2.000;2023-06-26T14:04:11;2.38;;;1.60;;
55300;SDS011;58302;51.446;-2.000;2023-06-26T14:06:37;1.42;;;0.75;;
55300;SDS011;58302;51.446;-2.000;2023-06-26T14:09:03;1.90;;;1.20;;
55300;SDS011;58302;51.446;-2.000;2023-06-26T14:11:29;4.60;;;1.50;;
55300;SDS011;58302;51.446;-2.000;2023-06-26T14:13:55;2.70;;;1.35;;
55300;SDS011;58302;51.446;-2.000;2023-06-26T14:16:21;1.92;;;1.10;;
55300;SDS011;58302;51.446;-2.000;2023-06-26T14:18:47;2.90;;;1.95;;
55300;SDS011;58302;51.446;-2.000;2023-06-26T14:21:13;5.07;;;1.52;;
55300;SDS011;58302;51.446;-2.000;2023-06-26T14:23:40;4.25;;;1.50;;
55300;SDS011;58302;51.446;-2.000;2023-06-26T14:26:08;3.45;;;1.65;;
55300;SDS011;58302;51.446;-2.000;2023-06-26T14:28:34;2.30;;;1.42;;
55300;SDS011;58302;51.446;-2.000;2023-06-26T14:31:00;2.13;;;1.25;;
55300;SDS011;58302;51.446;-2.000;2023-06-26T14:33:26;2.70;;;1.60;;
55300;SDS011;58302;51.446;-2.000;2023-06-26T14:35:52;2.83;;;1.80;;
55300;SDS011;58302;51.446;-2.000;2023-06-26T14:38:18;6.65;;;1.65;;
55300;SDS011;58302;51.446;-2.000;2023-06-26T14:40:44;4.70;;;2.15;;
55300;SDS011;58302;51.446;-2.000;2023-06-26T14:43:10;2.25;;;1.20;;
55300;SDS011;58302;51.446;-2.000;2023-06-26T14:45:36;2.83;;;1.40;;
55300;SDS011;58302;51.446;-2.000;2023-06-26T14:48:02;2.70;;;0.93;;
55300;SDS011;58302;51.446;-2.000;2023-06-26T14:50:28;4.75;;;2.22;;
55300;SDS011;58302;51.446;-2.000;2023-06-26T14:52:54;4.20;;;1.10;;
55300;SDS011;58302;51.446;-2.000;2023-06-26T14:55:20;1.73;;;1.35;;
55300;SDS011;58302;51.446;-2.000;2023-06-26T14:57:45;5.85;;;1.83;;
55300;SDS011;58302;51.446;-2.000;2023-06-26T15:00:12;2.47;;;1.48;;
55300;SDS011;58302;51.446;-2.000;2023-06-26T15:02:38;1.85;;;1.15;;
55300;SDS011;58302;51.446;-2.000;2023-06-26T15:05:04;2.88;;;1.27;;
55300;SDS011;58302;51.446;-2.000;2023-06-26T15:07:30;3.75;;;1.17;;
55300;SDS011;58302;51.446;-2.000;2023-06-26T15:09:56;4.60;;;1.77;;
55300;SDS011;58302;51.446;-2.000;2023-06-26T15:12:22;2.33;;;1.50;;